sensor_id;sensor_type;location;lat;lon;timestamp;pressure;altitude;pressure_sealevel;temperature;humidity
45345;BME280;31078;48.304;11.896;2023-04-30T00:01:25;96448.41;;;11.35;83.51
45345;BME280;31078;48.304;11.896;2023-04-30T00:03:54;96446.31;;;11.32;83.52
45345;BME280;31078;48.304;11.896;2023-04-30T00:06:20;96437.69;;;11.30;83.87
45345;BME280;31078;48.304;11.896;2023-04-30T00:08:47;96448.56;;;11.21;83.91
45345;BME280;31078;48.304;11.896;2023-04-30T00:11:13;96446.78;;;11.16;84.14
45345;BME280;31078;48.304;11.896;2023-04-30T00:13:40;96447.28;;;11.18;84.31
45345;BME280;31078;48.304;11.896;2023-04-30T00:16:07;96447.59;;;11.17;84.16
45345;BME280;31078;48.304;11.896;2023-04-30T00:18:35;96446.00;;;11.16;84.67
45345;BME280;31078;48.304;11.896;2023-04-30T00:21:03;96437.97;;;11.11;84.86
45345;BME280;31078;48.304;11.896;2023-04-30T00:23:29;96441.19;;;11.13;84.91
45345;BME280;31078;48.304;11.896;2023-04-30T00:25:56;96444.41;;;11.15;84.84
45345;BME280;31078;48.304;11.896;2023-04-30T00:28:22;96450.66;;;11.15;84.60
45345;BME280;31078;48.304;11.896;2023-04-30T00:30:49;96453.38;;;11.15;84.83
45345;BME280;31078;48.304;11.896;2023-04-30T00:33:15;96459.31;;;11.17;85.14
45345;BME280;31078;48.304;11.896;2023-04-30T00:35:42;96452.91;;;11.13;85.27
45345;BME280;31078;48.304;11.896;2023-04-30T00:38:10;96450.47;;;11.12;85.38
45345;BME280;31078;48.304;11.896;2023-04-30T00:40:37;96450.16;;;11.13;85.52
45345;BME280;31078;48.304;11.896;2023-04-30T00:43:05;96438.16;;;11.14;85.18
45345;BME280;31078;48.304;11.896;2023-04-30T00:45:32;96445.34;;;11.10;85.35
45345;BME280;31078;48.304;11.896;2023-04-30T00:47:58;96441.81;;;11.10;85.64
45345;BME280;31078;48.304;11.896;2023-04-30T00:50:25;96440.84;;;11.06;85.63
45345;BME280;31078;48.304;11.896;2023-04-30T00:52:52;96445.03;;;11.03;85.61
45345;BME280;31078;48.304;11.896;2023-04-30T00:55:20;96445.19;;;10.98;85.55
45345;BME280;31078;48.304;11.896;2023-04-30T00:57:47;96455.09;;;10.94;85.98
45345;BME280;31078;48.304;11.896;2023-04-30T01:00:14;96454.63;;;10.92;86.39
45345;BME280;31078;48.304;11.896;2023-04-30T01:02:41;96453.00;;;10.91;85.90
45345;BME280;31078;48.304;11.896;2023-04-30T01:05:07;96465.66;;;10.87;85.91
45345;BME280;31078;48.304;11.896;2023-04-30T01:07:35;96461.50;;;10.81;85.82
45345;BME280;31078;48.304;11.896;2023-04-30T01:10:03;96471.41;;;10.77;85.39
45345;BME280;31078;48.304;11.896;2023-04-30T01:12:36;96463.88;;;10.74;85.85
45345;BME280;31078;48.304;11.896;2023-04-30T01:15:09;96463.03;;;10.64;85.90
45345;BME280;31078;48.304;11.896;2023-04-30T01:17:44;96477.63;;;10.68;86.41
45345;BME280;31078;48.304;11.896;2023-04-30T01:20:13;96475.53;;;10.65;86.43
45345;BME280;31078;48.304;11.896;2023-04-30T01:22:45;96473.59;;;10.57;86.71
45345;BME280;31078;48.304;11.896;2023-04-30T01:25:30;96478.41;;;10.60;86.65
45345;BME280;31078;48.304;11.896;2023-04-30T01:28:08;96473.91;;;10.64;87.13
45345;BME280;31078;48.304;11.896;2023-04-30T01:30:35;96472.78;;;10.57;87.02
45345;BME280;31078;48.304;11.896;2023-04-30T01:33:02;96475.69;;;10.60;88.00
45345;BME280;31078;48.304;11.896;2023-04-30T01:35:47;96485.94;;;10.63;88.07
45345;BME280;31078;48.304;11.896;2023-04-30T01:38:26;96476.63;;;10.64;88.35
45345;BME280;31078;48.304;11.896;2023-04-30T01:40:57;96483.22;;;10.63;88.19
45345;BME280;31078;48.304;11.896;2023-04-30T01:43:29;96484.34;;;10.62;88.31
45345;BME280;31078;48.304;11.896;2023-04-30T01:46:07;96480.00;;;10.61;88.26
45345;BME280;31078;48.304;11.896;2023-04-30T01:48:41;96483.84;;;10.60;88.46
45345;BME280;31078;48.304;11.896;2023-04-30T01:51:15;96486.06;;;10.58;88.66
45345;BME280;31078;48.304;11.896;2023-04-30T01:53:44;96487.19;;;10.57;88.47
45345;BME280;31078;48.304;11.896;2023-04-30T01:56:17;96490.91;;;10.61;88.38
45345;BME280;31078;48.304;11.896;2023-04-30T01:58:48;96500.66;;;10.62;88.20
45345;BME280;31078;48.304;11.896;2023-04-30T02:01:25;96495.38;;;10.57;87.84
45345;BME280;31078;48.304;11.896;2023-04-30T02:03:52;96500.94;;;10.52;87.06
45345;BME280;31078;48.304;11.896;2023-04-30T02:06:19;96500.00;;;10.57;87.14
45345;BME280;31078;48.304;11.896;2023-04-30T02:08:45;96494.25;;;10.58;87.38
45345;BME280;31078;48.304;11.896;2023-04-30T02:11:12;96496.34;;;10.61;86.75
45345;BME280;31078;48.304;11.896;2023-04-30T02:13:38;96496.81;;;10.63;86.41
45345;BME280;31078;48.304;11.896;2023-04-30T02:16:06;96497.94;;;10.62;86.37
45345;BME280;31078;48.304;11.896;2023-04-30T02:18:33;96503.41;;;10.62;86.47
45345;BME280;31078;48.304;11.896;2023-04-30T02:20:59;96501.28;;;10.59;86.34
45345;BME280;31078;48.304;11.896;2023-04-30T02:23:26;96500.81;;;10.57;86.48
45345;BME280;31078;48.304;11.896;2023-04-30T02:25:52;96507.38;;;10.56;86.40
45345;BME280;31078;48.304;11.896;2023-04-30T02:28:19;96505.78;;;10.55;86.71
45345;BME280;31078;48.304;11.896;2023-04-30T02:30:46;96512.63;;;10.53;86.44
45345;BME280;31078;48.304;11.896;2023-04-30T02:33:13;96507.53;;;10.51;86.63
45345;BME280;31078;48.304;11.896;2023-04-30T02:35:40;96512.44;;;10.49;86.41
45345;BME280;31078;48.304;11.896;2023-04-30T02:38:06;96513.56;;;10.48;86.67
45345;BME280;31078;48.304;11.896;2023-04-30T02:40:34;96513.91;;;10.47;86.90
45345;BME280;31078;48.304;11.896;2023-04-30T02:43:00;96515.50;;;10.48;87.24
45345;BME280;31078;48.304;11.896;2023-04-30T02:45:27;96511.50;;;10.45;87.36
45345;BME280;31078;48.304;11.896;2023-04-30T02:47:53;96512.31;;;10.45;87.39
45345;BME280;31078;48.304;11.896;2023-04-30T02:50:21;96504.94;;;10.46;87.31
45345;BME280;31078;48.304;11.896;2023-04-30T02:52:47;96501.88;;;10.48;87.78
45345;BME280;31078;48.304;11.896;2023-04-30T02:55:14;96510.84;;;10.48;87.36
45345;BME280;31078;48.304;11.896;2023-04-30T02:57:40;96512.16;;;10.51;87.76
45345;BME280;31078;48.304;11.896;2023-04-30T03:00:08;96501.56;;;10.49;87.50
45345;BME280;31078;48.304;11.896;2023-04-30T03:02:35;96506.72;;;10.51;87.51
45345;BME280;31078;48.304;11.896;2023-04-30T03:05:01;96516.47;;;10.52;87.69
45345;BME280;31078;48.304;11.896;2023-04-30T03:07:29;96508.63;;;10.50;87.76
45345;BME280;31078;48.304;11.896;2023-04-30T03:09:56;96508.13;;;10.48;87.57
45345;BME280;31078;48.304;11.896;2023-04-30T03:12:22;96515.81;;;10.46;87.73
45345;BME280;31078;48.304;11.896;2023-04-30T03:14:49;96510.19;;;10.42;87.49
45345;BME280;31078;48.304;11.896;2023-04-30T03:17:16;96519.97;;;10.43;87.84
45345;BME280;31078;48.304;11.896;2023-04-30T03:19:43;96521.25;;;10.46;87.88
45345;BME280;31078;48.304;11.896;2023-04-30T03:22:09;96515.81;;;10.46;88.06
45345;BME280;31078;48.304;11.896;2023-04-30T03:24:37;96518.06;;;10.44;87.86
45345;BME280;31078;48.304;11.896;2023-04-30T03:27:04;96512.09;;;10.42;88.24
45345;BME280;31078;48.304;11.896;2023-04-30T03:29:30;96508.25;;;10.43;88.01
45345;BME280;31078;48.304;11.896;2023-04-30T03:31:57;96504.94;;;10.46;88.46
45345;BME280;31078;48.304;11.896;2023-04-30T03:34:23;96507.78;;;10.41;88.17
45345;BME280;31078;48.304;11.896;2023-04-30T03:36:50;96512.09;;;10.42;88.26
45345;BME280;31078;48.304;11.896;2023-04-30T03:39:16;96502.16;;;10.37;88.16
45345;BME280;31078;48.304;11.896;2023-04-30T03:41:44;96494.78;;;10.38;88.23
45345;BME280;31078;48.304;11.896;2023-04-30T03:44:10;96492.88;;;10.38;88.52
45345;BME280;31078;48.304;11.896;2023-04-30T03:46:40;96490.78;;;10.35;88.33
45345;BME280;31078;48.304;11.896;2023-04-30T03:49:07;96490.91;;;10.30;88.50
45345;BME280;31078;48.304;11.896;2023-04-30T03:51:33;96491.25;;;10.29;88.51
45345;BME280;31078;48.304;11.896;2023-04-30T03:54:04;96491.78;;;10.17;88.77
45345;BME280;31078;48.304;11.896;2023-04-30T03:56:30;96489.38;;;10.15;88.20
45345;BME280;31078;48.304;11.896;2023-04-30T03:58:58;96494.94;;;10.10;88.40
45345;BME280;31078;48.304;11.896;2023-04-30T04:01:25;96490.44;;;10.06;88.57
45345;BME280;31078;48.304;11.896;2023-04-30T04:03:52;96493.47;;;10.04;88.56
45345;BME280;31078;48.304;11.896;2023-04-30T04:06:19;96492.84;;;10.07;88.91
45345;BME280;31078;48.304;11.896;2023-04-30T04:08:46;96491.09;;;10.11;89.50
45345;BME280;31078;48.304;11.896;2023-04-30T04:11:12;96492.69;;;10.12;89.29
45345;BME280;31078;48.304;11.896;2023-04-30T04:13:39;96492.66;;;10.04;89.54
45345;BME280;31078;48.304;11.896;2023-04-30T04:16:07;96487.91;;;10.09;89.71
45345;BME280;31078;48.304;11.896;2023-04-30T04:18:33;96493.22;;;10.14;89.32
45345;BME280;31078;48.304;11.896;2023-04-30T04:21:00;96492.56;;;10.17;89.28
45345;BME280;31078;48.304;11.896;2023-04-30T04:23:27;96489.56;;;10.19;89.24
45345;BME280;31078;48.304;11.896;2023-04-30T04:25:53;96500.59;;;10.23;88.90
45345;BME280;31078;48.304;11.896;2023-04-30T04:28:21;96502.25;;;10.24;88.80
45345;BME280;31078;48.304;11.896;2023-04-30T04:30:48;96507.16;;;10.22;88.78
45345;BME280;31078;48.304;11.896;2023-04-30T04:33:16;96509.09;;;10.21;88.37
45345;BME280;31078;48.304;11.896;2023-04-30T04:35:42;96510.53;;;10.18;88.58
45345;BME280;31078;48.304;11.896;2023-04-30T04:38:09;96503.97;;;10.19;88.26
45345;BME280;31078;48.304;11.896;2023-04-30T04:40:35;96515.59;;;10.11;88.09
45345;BME280;31078;48.304;11.896;2023-04-30T04:43:02;96509.16;;;10.07;88.18
45345;BME280;31078;48.304;11.896;2023-04-30T04:45:28;96518.63;;;10.10;88.06
45345;BME280;31078;48.304;11.896;2023-04-30T04:47:55;96519.31;;;10.15;88.08
45345;BME280;31078;48.304;11.896;2023-04-30T04:50:23;96523.00;;;10.19;88.28
45345;BME280;31078;48.304;11.896;2023-04-30T04:52:50;96524.56;;;10.12;88.05
45345;BME280;31078;48.304;11.896;2023-04-30T04:55:16;96521.22;;;10.15;88.06
45345;BME280;31078;48.304;11.896;2023-04-30T04:57:43;96518.06;;;10.22;87.63
45345;BME280;31078;48.304;11.896;2023-04-30T05:00:10;96526.13;;;10.27;87.46
45345;BME280;31078;48.304;11.896;2023-04-30T05:02:37;96526.13;;;10.27;87.21
45345;BME280;31078;48.304;11.896;2023-04-30T05:05:04;96521.78;;;10.26;86.79
45345;BME280;31078;48.304;11.896;2023-04-30T05:07:32;96530.66;;;10.17;87.22
45345;BME280;31078;48.304;11.896;2023-04-30T05:09:59;96521.00;;;10.25;86.96
45345;BME280;31078;48.304;11.896;2023-04-30T05:12:25;96531.56;;;10.27;86.99
45345;BME280;31078;48.304;11.896;2023-04-30T05:14:52;96537.69;;;10.32;86.47
45345;BME280;31078;48.304;11.896;2023-04-30T05:17:18;96547.16;;;10.35;86.53
45345;BME280;31078;48.304;11.896;2023-04-30T05:19:45;96546.22;;;10.39;85.86
45345;BME280;31078;48.304;11.896;2023-04-30T05:22:13;96535.69;;;10.47;86.08
45345;BME280;31078;48.304;11.896;2023-04-30T05:24:41;96538.84;;;10.40;85.07
45345;BME280;31078;48.304;11.896;2023-04-30T05:27:07;96545.63;;;10.51;85.11
45345;BME280;31078;48.304;11.896;2023-04-30T05:29:34;96551.53;;;10.44;84.37
45345;BME280;31078;48.304;11.896;2023-04-30T05:32:01;96549.75;;;10.40;84.50
45345;BME280;31078;48.304;11.896;2023-04-30T05:34:27;96553.16;;;10.54;84.68
45345;BME280;31078;48.304;11.896;2023-04-30T05:36:54;96551.28;;;10.55;83.58
45345;BME280;31078;48.304;11.896;2023-04-30T05:39:20;96555.00;;;10.67;83.30
45345;BME280;31078;48.304;11.896;2023-04-30T05:41:48;96555.88;;;10.54;82.13
45345;BME280;31078;48.304;11.896;2023-04-30T05:44:14;96559.84;;;10.70;82.29
45345;BME280;31078;48.304;11.896;2023-04-30T05:46:41;96546.34;;;10.65;81.80
45345;BME280;31078;48.304;11.896;2023-04-30T05:49:07;96550.16;;;10.64;80.97
45345;BME280;31078;48.304;11.896;2023-04-30T05:51:34;96552.63;;;10.75;80.61
45345;BME280;31078;48.304;11.896;2023-04-30T05:54:00;96553.81;;;10.91;79.91
45345;BME280;31078;48.304;11.896;2023-04-30T05:56:27;96556.56;;;11.00;80.70
45345;BME280;31078;48.304;11.896;2023-04-30T05:58:55;96560.28;;;11.04;80.70
45345;BME280;31078;48.304;11.896;2023-04-30T06:01:21;96551.97;;;11.09;79.67
45345;BME280;31078;48.304;11.896;2023-04-30T06:03:48;96554.06;;;11.20;80.02
45345;BME280;31078;48.304;11.896;2023-04-30T06:06:15;96551.19;;;11.26;79.50
45345;BME280;31078;48.304;11.896;2023-04-30T06:08:41;96561.31;;;11.34;79.45
45345;BME280;31078;48.304;11.896;2023-04-30T06:11:30;96554.09;;;11.38;78.88
45345;BME280;31078;48.304;11.896;2023-04-30T06:13:58;96550.13;;;11.44;79.54
45345;BME280;31078;48.304;11.896;2023-04-30T06:16:24;96548.34;;;11.48;78.58
45345;BME280;31078;48.304;11.896;2023-04-30T06:18:51;96545.47;;;11.53;77.42
45345;BME280;31078;48.304;11.896;2023-04-30T06:21:17;96548.84;;;11.50;76.82
45345;BME280;31078;48.304;11.896;2023-04-30T06:23:44;96553.63;;;11.53;76.83
45345;BME280;31078;48.304;11.896;2023-04-30T06:26:11;96555.91;;;11.51;76.06
45345;BME280;31078;48.304;11.896;2023-04-30T06:28:39;96554.63;;;11.57;76.35
45345;BME280;31078;48.304;11.896;2023-04-30T06:31:07;96554.63;;;11.57;76.18
45345;BME280;31078;48.304;11.896;2023-04-30T06:33:33;96554.47;;;11.71;76.54
45345;BME280;31078;48.304;11.896;2023-04-30T06:36:00;96554.78;;;11.78;76.02
45345;BME280;31078;48.304;11.896;2023-04-30T06:38:27;96550.81;;;11.93;76.63
45345;BME280;31078;48.304;11.896;2023-04-30T06:40:53;96550.03;;;12.01;75.18
45345;BME280;31078;48.304;11.896;2023-04-30T06:43:20;96554.81;;;12.13;74.22
45345;BME280;31078;48.304;11.896;2023-04-30T06:45:46;96547.25;;;12.18;72.71
45345;BME280;31078;48.304;11.896;2023-04-30T06:48:14;96551.44;;;12.24;72.55
45345;BME280;31078;48.304;11.896;2023-04-30T06:50:40;96561.38;;;12.38;71.26
45345;BME280;31078;48.304;11.896;2023-04-30T06:53:09;96556.56;;;12.35;68.92
45345;BME280;31078;48.304;11.896;2023-04-30T06:55:36;96556.03;;;12.41;67.17
45345;BME280;31078;48.304;11.896;2023-04-30T06:58:03;96558.13;;;12.53;67.92
45345;BME280;31078;48.304;11.896;2023-04-30T07:00:30;96553.31;;;12.50;67.66
45345;BME280;31078;48.304;11.896;2023-04-30T07:02:56;96558.47;;;12.43;67.95
45345;BME280;31078;48.304;11.896;2023-04-30T07:05:26;96555.91;;;12.38;67.81
45345;BME280;31078;48.304;11.896;2023-04-30T07:07:52;96556.72;;;12.38;68.49
45345;BME280;31078;48.304;11.896;2023-04-30T07:10:19;96558.09;;;12.62;67.49
45345;BME280;31078;48.304;11.896;2023-04-30T07:12:45;96544.81;;;12.43;67.10
45345;BME280;31078;48.304;11.896;2023-04-30T07:15:12;96557.97;;;12.41;67.57
45345;BME280;31078;48.304;11.896;2023-04-30T07:17:38;96553.00;;;12.43;67.75
45345;BME280;31078;48.304;11.896;2023-04-30T07:20:07;96555.56;;;12.48;69.72
45345;BME280;31078;48.304;11.896;2023-04-30T07:22:35;96553.47;;;12.45;68.09
45345;BME280;31078;48.304;11.896;2023-04-30T07:25:01;96550.56;;;12.59;67.87
45345;BME280;31078;48.304;11.896;2023-04-30T07:27:28;96545.84;;;12.76;69.22
45345;BME280;31078;48.304;11.896;2023-04-30T07:29:54;96549.63;;;12.93;68.04
45345;BME280;31078;48.304;11.896;2023-04-30T07:32:21;96540.22;;;13.11;66.88
45345;BME280;31078;48.304;11.896;2023-04-30T07:34:51;96544.66;;;13.24;67.19
45345;BME280;31078;48.304;11.896;2023-04-30T07:37:18;96552.47;;;13.64;67.55
45345;BME280;31078;48.304;11.896;2023-04-30T07:39:47;96555.56;;;13.83;65.14
45345;BME280;31078;48.304;11.896;2023-04-30T07:42:13;96546.88;;;13.81;63.29
45345;BME280;31078;48.304;11.896;2023-04-30T07:44:40;96559.56;;;14.07;61.66
45345;BME280;31078;48.304;11.896;2023-04-30T07:47:06;96561.81;;;14.59;58.84
45345;BME280;31078;48.304;11.896;2023-04-30T07:49:34;96552.88;;;15.56;55.84
45345;BME280;31078;48.304;11.896;2023-04-30T07:52:00;96542.06;;;16.44;53.61
45345;BME280;31078;48.304;11.896;2023-04-30T07:54:27;96559.50;;;17.08;52.85
45345;BME280;31078;48.304;11.896;2023-04-30T07:56:55;96559.50;;;17.08;52.57
45345;BME280;31078;48.304;11.896;2023-04-30T07:59:22;96557.34;;;18.19;50.91
45345;BME280;31078;48.304;11.896;2023-04-30T08:01:49;96561.78;;;19.31;47.24
45345;BME280;31078;48.304;11.896;2023-04-30T08:04:15;96551.41;;;20.30;44.57
45345;BME280;31078;48.304;11.896;2023-04-30T08:06:42;96553.16;;;20.76;42.22
45345;BME280;31078;48.304;11.896;2023-04-30T08:09:08;96561.94;;;21.26;41.23
45345;BME280;31078;48.304;11.896;2023-04-30T08:11:35;96554.94;;;21.35;40.63
45345;BME280;31078;48.304;11.896;2023-04-30T08:14:03;96560.97;;;21.07;41.99
45345;BME280;31078;48.304;11.896;2023-04-30T08:16:31;96560.06;;;20.96;41.05
45345;BME280;31078;48.304;11.896;2023-04-30T08:18:57;96561.84;;;20.11;43.39
45345;BME280;31078;48.304;11.896;2023-04-30T08:21:24;96553.16;;;19.10;44.58
45345;BME280;31078;48.304;11.896;2023-04-30T08:23:52;96551.22;;;18.68;45.53
45345;BME280;31078;48.304;11.896;2023-04-30T08:26:18;96560.66;;;18.67;45.82
45345;BME280;31078;48.304;11.896;2023-04-30T08:28:45;96559.38;;;18.22;47.92
45345;BME280;31078;48.304;11.896;2023-04-30T08:31:13;96556.75;;;18.29;48.43
45345;BME280;31078;48.304;11.896;2023-04-30T08:33:40;96549.00;;;17.96;48.02
45345;BME280;31078;48.304;11.896;2023-04-30T08:36:06;96553.63;;;16.93;50.35
45345;BME280;31078;48.304;11.896;2023-04-30T08:38:33;96548.25;;;16.69;52.53
45345;BME280;31078;48.304;11.896;2023-04-30T08:41:06;96553.25;;;16.35;53.65
45345;BME280;31078;48.304;11.896;2023-04-30T08:43:34;96547.25;;;16.46;55.44
45345;BME280;31078;48.304;11.896;2023-04-30T08:46:01;96547.59;;;16.88;53.84
45345;BME280;31078;48.304;11.896;2023-04-30T08:48:29;96550.56;;;16.67;52.54
45345;BME280;31078;48.304;11.896;2023-04-30T08:50:58;96549.97;;;15.89;53.81
45345;BME280;31078;48.304;11.896;2023-04-30T08:53:25;96552.84;;;16.21;55.51
45345;BME280;31078;48.304;11.896;2023-04-30T08:55:52;96557.88;;;16.47;54.27
45345;BME280;31078;48.304;11.896;2023-04-30T08:58:18;96553.09;;;16.72;57.31
45345;BME280;31078;48.304;11.896;2023-04-30T09:00:45;96553.25;;;16.79;53.96
45345;BME280;31078;48.304;11.896;2023-04-30T09:03:12;96551.56;;;16.75;53.28
45345;BME280;31078;48.304;11.896;2023-04-30T09:05:40;96557.72;;;17.00;53.91
45345;BME280;31078;48.304;11.896;2023-04-30T09:08:07;96554.41;;;17.41;54.61
45345;BME280;31078;48.304;11.896;2023-04-30T09:10:34;96548.00;;;17.53;54.59
45345;BME280;31078;48.304;11.896;2023-04-30T09:13:03;96554.84;;;17.75;51.36
45345;BME280;31078;48.304;11.896;2023-04-30T09:15:31;96554.66;;;18.03;52.80
45345;BME280;31078;48.304;11.896;2023-04-30T09:18:08;96556.28;;;17.88;51.22
45345;BME280;31078;48.304;11.896;2023-04-30T09:20:35;96554.78;;;17.24;53.18
45345;BME280;31078;48.304;11.896;2023-04-30T09:23:08;96549.19;;;17.05;52.40
45345;BME280;31078;48.304;11.896;2023-04-30T09:25:38;96556.47;;;16.53;52.96
45345;BME280;31078;48.304;11.896;2023-04-30T09:28:06;96549.94;;;16.30;55.36
45345;BME280;31078;48.304;11.896;2023-04-30T09:30:33;96554.38;;;16.06;56.87
45345;BME280;31078;48.304;11.896;2023-04-30T09:33:01;96549.91;;;16.14;57.98
45345;BME280;31078;48.304;11.896;2023-04-30T09:35:28;96551.31;;;16.08;56.29
45345;BME280;31078;48.304;11.896;2023-04-30T09:37:55;96550.97;;;15.97;56.14
45345;BME280;31078;48.304;11.896;2023-04-30T09:40:34;96550.81;;;15.65;57.58
45345;BME280;31078;48.304;11.896;2023-04-30T09:43:01;96552.06;;;15.56;57.45
45345;BME280;31078;48.304;11.896;2023-04-30T09:45:38;96542.94;;;15.64;57.75
45345;BME280;31078;48.304;11.896;2023-04-30T09:48:07;96553.66;;;15.57;56.50
45345;BME280;31078;48.304;11.896;2023-04-30T09:50:37;96552.78;;;15.40;58.13
45345;BME280;31078;48.304;11.896;2023-04-30T09:53:05;96551.16;;;15.27;55.68
45345;BME280;31078;48.304;11.896;2023-04-30T09:55:35;96554.13;;;15.22;55.21
45345;BME280;31078;48.304;11.896;2023-04-30T09:58:06;96554.25;;;15.26;54.95
45345;BME280;31078;48.304;11.896;2023-04-30T10:00:33;96547.97;;;15.25;54.97
45345;BME280;31078;48.304;11.896;2023-04-30T10:03:04;96548.06;;;15.29;56.95
45345;BME280;31078;48.304;11.896;2023-04-30T10:05:34;96552.31;;;15.38;57.74
45345;BME280;31078;48.304;11.896;2023-04-30T10:08:02;96545.44;;;15.45;57.29
45345;BME280;31078;48.304;11.896;2023-04-30T10:10:31;96550.34;;;15.39;56.01
45345;BME280;31078;48.304;11.896;2023-04-30T10:13:05;96551.16;;;15.27;57.45
45345;BME280;31078;48.304;11.896;2023-04-30T10:15:37;96542.03;;;15.35;55.93
45345;BME280;31078;48.304;11.896;2023-04-30T10:18:08;96536.88;;;15.34;57.02
45345;BME280;31078;48.304;11.896;2023-04-30T10:20:37;96537.34;;;15.36;56.62
45345;BME280;31078;48.304;11.896;2023-04-30T10:23:05;96535.59;;;15.44;56.27
45345;BME280;31078;48.304;11.896;2023-04-30T10:25:34;96538.94;;;15.37;54.93
45345;BME280;31078;48.304;11.896;2023-04-30T10:28:07;96534.03;;;15.18;55.62
45345;BME280;31078;48.304;11.896;2023-04-30T10:30:37;96529.69;;;15.17;53.58
45345;BME280;31078;48.304;11.896;2023-04-30T10:33:11;96530.47;;;15.42;55.23
45345;BME280;31078;48.304;11.896;2023-04-30T10:35:46;96536.53;;;15.23;53.10
45345;BME280;31078;48.304;11.896;2023-04-30T10:38:22;96534.50;;;15.20;54.13
45345;BME280;31078;48.304;11.896;2023-04-30T10:40:49;96530.13;;;15.31;55.76
45345;BME280;31078;48.304;11.896;2023-04-30T10:43:17;96528.31;;;15.35;55.86
45345;BME280;31078;48.304;11.896;2023-04-30T10:45:52;96522.69;;;15.32;56.43
45345;BME280;31078;48.304;11.896;2023-04-30T10:48:21;96516.91;;;15.09;56.31
45345;BME280;31078;48.304;11.896;2023-04-30T10:50:52;96522.34;;;15.33;56.72
45345;BME280;31078;48.304;11.896;2023-04-30T10:53:20;96515.16;;;15.29;54.53
45345;BME280;31078;48.304;11.896;2023-04-30T10:55:52;96522.81;;;15.23;55.20
45345;BME280;31078;48.304;11.896;2023-04-30T10:58:29;96515.94;;;15.29;55.03
45345;BME280;31078;48.304;11.896;2023-04-30T11:01:00;96522.59;;;15.40;55.12
45345;BME280;31078;48.304;11.896;2023-04-30T11:03:28;96508.63;;;15.46;56.09
45345;BME280;31078;48.304;11.896;2023-04-30T11:05:55;96512.69;;;15.76;55.41
45345;BME280;31078;48.304;11.896;2023-04-30T11:08:31;96506.22;;;15.69;55.09
45345;BME280;31078;48.304;11.896;2023-04-30T11:10:59;96508.41;;;15.63;53.54
45345;BME280;31078;48.304;11.896;2023-04-30T11:13:27;96508.16;;;15.56;54.23
45345;BME280;31078;48.304;11.896;2023-04-30T11:16:01;96499.53;;;15.82;54.63
45345;BME280;31078;48.304;11.896;2023-04-30T11:18:28;96504.25;;;15.69;53.41
45345;BME280;31078;48.304;11.896;2023-04-30T11:20:56;96498.09;;;15.72;53.02
45345;BME280;31078;48.304;11.896;2023-04-30T11:23:25;96498.53;;;15.74;52.10
45345;BME280;31078;48.304;11.896;2023-04-30T11:25:53;96504.31;;;16.13;51.33
45345;BME280;31078;48.304;11.896;2023-04-30T11:28:24;96501.66;;;16.29;50.44
45345;BME280;31078;48.304;11.896;2023-04-30T11:30:54;96502.22;;;16.22;50.72
45345;BME280;31078;48.304;11.896;2023-04-30T11:33:22;96495.72;;;16.42;51.44
45345;BME280;31078;48.304;11.896;2023-04-30T11:35:50;96493.09;;;16.62;49.57
45345;BME280;31078;48.304;11.896;2023-04-30T11:38:19;96497.50;;;16.51;50.27
45345;BME280;31078;48.304;11.896;2023-04-30T11:40:47;96497.22;;;16.40;50.42
45345;BME280;31078;48.304;11.896;2023-04-30T11:43:21;96492.19;;;16.58;50.00
45345;BME280;31078;48.304;11.896;2023-04-30T11:46:00;96489.25;;;16.35;48.99
45345;BME280;31078;48.304;11.896;2023-04-30T11:48:31;96480.88;;;16.75;50.98
45345;BME280;31078;48.304;11.896;2023-04-30T11:51:02;96486.72;;;16.89;49.76
45345;BME280;31078;48.304;11.896;2023-04-30T11:53:29;96490.91;;;16.99;50.34
45345;BME280;31078;48.304;11.896;2023-04-30T11:55:55;96489.03;;;17.19;49.52
45345;BME280;31078;48.304;11.896;2023-04-30T11:58:22;96497.25;;;17.35;48.89
45345;BME280;31078;48.304;11.896;2023-04-30T12:00:49;96499.09;;;17.46;48.34
45345;BME280;31078;48.304;11.896;2023-04-30T12:03:21;96482.63;;;17.15;49.20
45345;BME280;31078;48.304;11.896;2023-04-30T12:05:50;96491.78;;;17.03;47.66
45345;BME280;31078;48.304;11.896;2023-04-30T12:08:18;96481.59;;;17.04;47.16
45345;BME280;31078;48.304;11.896;2023-04-30T12:10:44;96476.84;;;17.20;48.08
45345;BME280;31078;48.304;11.896;2023-04-30T12:13:13;96483.19;;;17.05;47.97
45345;BME280;31078;48.304;11.896;2023-04-30T12:15:41;96476.97;;;17.08;45.95
45345;BME280;31078;48.304;11.896;2023-04-30T12:18:10;96476.94;;;17.24;46.04
45345;BME280;31078;48.304;11.896;2023-04-30T12:20:40;96464.88;;;17.47;45.95
45345;BME280;31078;48.304;11.896;2023-04-30T12:23:08;96470.56;;;17.55;45.11
45345;BME280;31078;48.304;11.896;2023-04-30T12:25:39;96477.38;;;17.61;46.92
45345;BME280;31078;48.304;11.896;2023-04-30T12:28:07;96466.84;;;17.82;46.26
45345;BME280;31078;48.304;11.896;2023-04-30T12:30:34;96462.22;;;17.86;44.76
45345;BME280;31078;48.304;11.896;2023-04-30T12:33:00;96463.16;;;17.59;43.31
45345;BME280;31078;48.304;11.896;2023-04-30T12:35:29;96458.69;;;17.70;45.43
45345;BME280;31078;48.304;11.896;2023-04-30T12:38:02;96453.88;;;18.02;43.51
45345;BME280;31078;48.304;11.896;2023-04-30T12:40:30;96454.06;;;18.13;43.53
45345;BME280;31078;48.304;11.896;2023-04-30T12:43:00;96447.91;;;18.00;43.56
45345;BME280;31078;48.304;11.896;2023-04-30T12:45:48;96448.09;;;18.30;45.20
45345;BME280;31078;48.304;11.896;2023-04-30T12:48:17;96446.78;;;18.43;44.59
45345;BME280;31078;48.304;11.896;2023-04-30T12:50:51;96452.44;;;18.31;44.25
45345;BME280;31078;48.304;11.896;2023-04-30T12:53:20;96461.28;;;18.40;41.82
45345;BME280;31078;48.304;11.896;2023-04-30T12:56:07;96452.97;;;18.17;43.24